createdAt,value
2018-05-12T00:00:08.377Z,19.87
2018-05-12T00:02:35.836Z,27.57
2018-05-12T00:05:03.286Z,19.73
2018-05-12T00:07:31.367Z,25.00
2018-05-12T00:09:58.821Z,25.00
2018-05-12T00:12:26.273Z,25.40
2018-05-12T00:14:53.773Z,17.10
2018-05-12T00:17:21.180Z,28.47
2018-05-12T00:19:48.634Z,21.13
2018-05-12T00:22:16.093Z,18.87
2018-05-12T00:24:43.546Z,28.20
2018-05-12T00:27:10.994Z,28.43
2018-05-12T00:29:38.444Z,28.97
2018-05-12T00:32:05.899Z,25.03
2018-05-12T00:34:33.343Z,29.80
2018-05-12T00:37:00.794Z,30.20
2018-05-12T00:39:28.266Z,31.00
2018-05-12T00:41:55.710Z,32.40
2018-05-12T00:44:23.159Z,21.93
2018-05-12T00:46:50.637Z,28.97
2018-05-12T00:49:18.087Z,30.13
2018-05-12T00:51:45.553Z,28.20
2018-05-12T00:54:13.021Z,26.70
2018-05-12T00:56:40.482Z,28.00
2018-05-12T00:59:07.972Z,30.50
2018-05-12T01:01:35.429Z,32.03
2018-05-12T01:04:02.970Z,30.00
2018-05-12T01:06:30.406Z,31.10
2018-05-12T01:08:57.865Z,29.93
2018-05-12T01:11:25.329Z,23.43
2018-05-12T01:13:52.792Z,30.37
2018-05-12T01:16:20.246Z,23.20
2018-05-12T01:18:47.722Z,31.80
2018-05-12T01:21:15.186Z,26.40
2018-05-12T01:23:42.634Z,27.30
2018-05-12T01:26:10.090Z,29.17
2018-05-12T01:28:37.558Z,33.10
2018-05-12T01:31:05.006Z,32.57
2018-05-12T01:33:32.454Z,30.40
2018-05-12T01:35:59.913Z,33.63
2018-05-12T01:38:27.353Z,33.57
2018-05-12T01:40:54.788Z,23.43
2018-05-12T01:43:22.260Z,29.13
2018-05-12T01:45:49.720Z,35.03
2018-05-12T01:48:17.265Z,28.30
2018-05-12T01:50:44.714Z,26.20
2018-05-12T01:53:12.145Z,28.27
2018-05-12T01:55:39.593Z,20.80
2018-05-12T01:58:07.033Z,25.17
2018-05-12T02:00:34.506Z,23.90
2018-05-12T02:03:01.946Z,23.70
2018-05-12T02:05:29.398Z,27.23
2018-05-12T02:07:56.864Z,27.60
2018-05-12T02:10:24.319Z,27.70
2018-05-12T02:12:51.819Z,25.20
2018-05-12T02:15:19.273Z,25.90
2018-05-12T02:17:46.741Z,29.00
2018-05-12T02:20:14.195Z,26.87
2018-05-12T02:22:41.651Z,28.10
2018-05-12T02:25:09.110Z,28.47
2018-05-12T02:27:36.577Z,28.33
2018-05-12T02:30:04.034Z,25.90
2018-05-12T02:32:31.474Z,25.47
2018-05-12T02:34:58.954Z,24.57
2018-05-12T02:37:26.404Z,23.03
2018-05-12T02:39:53.851Z,30.10
2018-05-12T02:42:21.315Z,29.63
2018-05-12T02:44:48.765Z,27.23
2018-05-12T02:47:16.238Z,21.70
2018-05-12T02:49:43.692Z,26.53
2018-05-12T02:52:11.154Z,27.90
2018-05-12T02:54:38.609Z,27.90
2018-05-12T02:57:06.061Z,24.33
2018-05-12T02:59:33.536Z,24.90
2018-05-12T03:02:01.001Z,27.40
2018-05-12T03:04:28.535Z,27.80
2018-05-12T03:06:55.987Z,31.93
2018-05-12T03:09:23.461Z,26.93
2018-05-12T03:11:50.938Z,32.20
2018-05-12T03:14:18.390Z,28.77
2018-05-12T03:16:45.837Z,25.10
2018-05-12T03:19:13.319Z,28.17
2018-05-12T03:21:40.767Z,23.10
2018-05-12T03:24:08.204Z,30.43
2018-05-12T03:26:35.675Z,26.60
2018-05-12T03:29:03.178Z,31.77
2018-05-12T03:31:30.635Z,29.33
2018-05-12T03:33:58.114Z,32.53
2018-05-12T03:36:25.630Z,31.20
2018-05-12T03:38:53.171Z,22.13
2018-05-12T03:41:20.591Z,23.90
2018-05-12T03:43:48.046Z,26.80
2018-05-12T03:46:15.498Z,32.67
2018-05-12T03:48:42.974Z,29.00
2018-05-12T03:51:10.435Z,29.67
2018-05-12T03:53:37.870Z,30.70
2018-05-12T03:56:05.345Z,31.90
2018-05-12T03:58:32.803Z,31.80
2018-05-12T04:01:00.406Z,31.40
2018-05-12T04:03:27.861Z,28.30
2018-05-12T04:06:07.165Z,31.30
2018-05-12T04:08:47.350Z,33.07
2018-05-12T04:11:26.635Z,31.97
2018-05-12T04:13:54.108Z,32.40
2018-05-12T04:16:21.564Z,29.30
2018-05-12T04:18:49.037Z,34.67
2018-05-12T04:21:16.479Z,29.30
2018-05-12T04:23:43.948Z,31.97
2018-05-12T04:26:11.395Z,33.37
2018-05-12T04:28:38.882Z,35.03
2018-05-12T04:31:06.354Z,29.90
2018-05-12T04:33:33.824Z,35.00
2018-05-12T04:36:01.291Z,30.43
2018-05-12T04:38:28.785Z,31.90
2018-05-12T04:40:56.222Z,35.50
2018-05-12T04:43:23.694Z,33.77
2018-05-12T04:45:51.169Z,33.67
2018-05-12T04:48:18.696Z,28.20
2018-05-12T04:50:46.217Z,35.93
2018-05-12T04:53:13.671Z,36.40
2018-05-12T04:55:41.130Z,32.70
2018-05-12T04:58:08.597Z,32.97
2018-05-12T05:00:36.065Z,32.30
2018-05-12T05:03:03.535Z,29.80
2018-05-12T05:05:31.014Z,34.27
2018-05-12T05:07:58.541Z,35.33
2018-05-12T05:10:26.010Z,33.70
2018-05-12T05:12:53.461Z,24.97
2018-05-12T05:15:21.111Z,35.63
2018-05-12T05:17:48.496Z,30.17
2018-05-12T05:20:15.942Z,30.40
2018-05-12T05:22:43.393Z,35.60
2018-05-12T05:25:10.849Z,34.03
2018-05-12T05:27:38.338Z,31.80
2018-05-12T05:30:05.810Z,33.30
2018-05-12T05:32:33.275Z,36.20
2018-05-12T05:35:00.764Z,33.93
2018-05-12T05:37:28.224Z,33.80
2018-05-12T05:39:55.665Z,36.97
2018-05-12T05:42:23.100Z,34.33
2018-05-12T05:44:50.547Z,30.80
2018-05-12T05:47:18.233Z,33.63
2018-05-12T05:49:45.732Z,30.23
2018-05-12T05:52:13.209Z,35.67
2018-05-12T05:54:40.728Z,23.07
2018-05-12T05:57:08.210Z,35.47
2018-05-12T05:59:35.690Z,33.57
2018-05-12T06:02:03.128Z,25.47
2018-05-12T06:04:30.595Z,24.30
2018-05-12T06:06:58.068Z,35.53
2018-05-12T06:09:25.498Z,34.30
2018-05-12T06:11:53.178Z,29.10
2018-05-12T06:14:20.752Z,35.43
2018-05-12T06:16:48.259Z,32.70
2018-05-12T06:19:15.722Z,32.10
2018-05-12T06:21:43.203Z,43.50
2018-05-12T06:24:10.659Z,38.90
2018-05-12T06:26:38.125Z,32.00
2018-05-12T06:29:05.572Z,39.40
2018-05-12T06:31:33.022Z,39.23
2018-05-12T06:34:00.511Z,32.87
2018-05-12T06:36:27.968Z,22.07
2018-05-12T06:38:55.464Z,42.27
2018-05-12T06:41:22.934Z,35.23
2018-05-12T06:43:50.419Z,26.10
2018-05-12T06:46:17.890Z,33.73
2018-05-12T06:48:45.356Z,29.20
2018-05-12T06:51:12.828Z,30.57
2018-05-12T06:53:40.281Z,43.63
2018-05-12T06:56:07.749Z,39.10
2018-05-12T06:58:35.241Z,30.93
2018-05-12T07:01:02.696Z,31.27
2018-05-12T07:03:30.165Z,29.87
2018-05-12T07:05:57.621Z,45.43
2018-05-12T07:08:25.074Z,29.73
2018-05-12T07:10:52.533Z,33.97
2018-05-12T07:13:19.998Z,39.73
2018-05-12T07:15:47.444Z,30.83
2018-05-12T07:18:14.910Z,39.37
2018-05-12T07:20:42.353Z,36.87
2018-05-12T07:23:09.811Z,31.33
2018-05-12T07:25:37.327Z,40.50
2018-05-12T07:28:04.835Z,39.47
2018-05-12T07:30:32.281Z,40.37
2018-05-12T07:32:59.756Z,21.23
2018-05-12T07:35:27.248Z,39.67
2018-05-12T07:37:54.689Z,41.40
2018-05-12T07:40:22.165Z,45.90
2018-05-12T07:42:49.615Z,35.30
2018-05-12T07:45:17.079Z,42.03
2018-05-12T07:47:44.530Z,39.53
2018-05-12T07:50:11.968Z,40.90
2018-05-12T07:52:39.418Z,25.87
2018-05-12T07:55:06.882Z,32.17
2018-05-12T07:57:34.350Z,40.07
2018-05-12T08:00:01.807Z,24.43
2018-05-12T08:02:29.287Z,23.00
2018-05-12T08:04:56.747Z,31.73
2018-05-12T08:07:24.231Z,38.60
2018-05-12T08:09:51.718Z,30.33
2018-05-12T08:12:19.249Z,30.77
2018-05-12T08:14:46.721Z,27.20
2018-05-12T08:17:14.201Z,28.37
2018-05-12T08:19:41.647Z,40.60
2018-05-12T08:22:09.102Z,40.57
2018-05-12T08:24:36.629Z,35.90
2018-05-12T08:27:04.085Z,39.37
2018-05-12T08:29:31.527Z,32.40
2018-05-12T08:31:59.017Z,35.37
2018-05-12T08:34:26.466Z,38.83
2018-05-12T08:36:53.915Z,22.87
2018-05-12T08:39:21.412Z,30.50
2018-05-12T08:41:48.857Z,31.20
2018-05-12T08:44:16.408Z,33.67
2018-05-12T08:46:43.909Z,22.80
2018-05-12T08:51:45.172Z,23.77
2018-05-12T08:54:12.634Z,26.70
2018-05-12T08:56:40.156Z,23.83
2018-05-12T08:59:07.614Z,27.80
2018-05-12T09:01:35.060Z,33.43
2018-05-12T09:04:02.506Z,27.80
2018-05-12T09:06:29.956Z,36.10
2018-05-12T09:08:57.417Z,28.27
2018-05-12T09:11:24.989Z,29.57
2018-05-12T09:13:52.442Z,23.17
2018-05-12T09:16:19.906Z,31.30
2018-05-12T09:18:47.417Z,24.57
2018-05-12T09:21:14.869Z,27.20
2018-05-12T09:23:42.365Z,23.77
2018-05-12T09:26:09.907Z,25.77
2018-05-12T09:28:37.382Z,27.67
2018-05-12T09:31:04.850Z,19.40
2018-05-12T09:33:32.289Z,32.63
2018-05-12T09:35:59.746Z,19.17
2018-05-12T09:38:27.193Z,36.00
2018-05-12T09:40:54.650Z,29.27
2018-05-12T09:43:22.121Z,31.80
2018-05-12T09:45:49.639Z,34.03
2018-05-12T09:48:17.166Z,23.80
2018-05-12T09:50:44.610Z,25.17
2018-05-12T09:53:12.064Z,30.73
2018-05-12T09:55:39.522Z,28.60
2018-05-12T09:58:06.977Z,19.20
2018-05-12T10:00:34.425Z,18.80
2018-05-12T10:03:01.887Z,16.00
2018-05-12T10:05:29.363Z,14.93
2018-05-12T10:07:58.662Z,20.80
2018-05-12T10:10:26.164Z,22.00
2018-05-12T10:12:53.694Z,13.97
2018-05-12T10:15:21.121Z,19.83
2018-05-12T10:17:48.553Z,14.87
2018-05-12T10:20:16.004Z,13.20
2018-05-12T10:22:43.481Z,10.27
2018-05-12T10:25:10.955Z,10.50
2018-05-12T10:27:38.389Z,8.73
2018-05-12T10:30:05.875Z,10.00
2018-05-12T10:32:33.295Z,8.83
2018-05-12T10:35:00.748Z,10.03
2018-05-12T10:37:28.210Z,10.07
2018-05-12T10:39:55.673Z,9.97
2018-05-12T10:42:23.158Z,10.53
2018-05-12T10:44:50.659Z,8.73
2018-05-12T10:47:18.115Z,9.20
2018-05-12T10:49:45.567Z,8.70
2018-05-12T10:52:13.034Z,11.80
2018-05-12T10:54:40.476Z,8.60
2018-05-12T10:57:07.943Z,9.77
2018-05-12T10:59:35.398Z,11.97
2018-05-12T11:02:02.928Z,15.00
2018-05-12T11:04:30.309Z,12.87
2018-05-12T11:06:57.755Z,11.30
2018-05-12T11:09:25.215Z,12.10
2018-05-12T11:11:52.658Z,11.33
2018-05-12T11:14:20.110Z,10.47
2018-05-12T11:16:47.575Z,9.57
2018-05-12T11:19:15.010Z,7.83
2018-05-12T11:21:42.471Z,7.60
2018-05-12T11:24:09.914Z,8.73
2018-05-12T11:26:37.570Z,9.00
2018-05-12T11:29:05.058Z,8.77
2018-05-12T11:31:32.533Z,7.10
2018-05-12T11:34:00.010Z,6.83
2018-05-12T11:36:27.512Z,6.50
2018-05-12T11:38:54.954Z,6.27
2018-05-12T11:41:22.409Z,6.33
2018-05-12T11:43:49.911Z,5.70
2018-05-12T11:46:17.374Z,4.80
2018-05-12T11:48:44.850Z,4.53
2018-05-12T11:51:12.298Z,5.33
2018-05-12T11:53:39.738Z,5.20
2018-05-12T11:56:07.222Z,5.47
2018-05-12T11:58:34.688Z,4.93
2018-05-12T12:01:02.157Z,4.93
2018-05-12T12:03:29.622Z,5.30
2018-05-12T12:05:57.077Z,6.30
2018-05-12T12:08:24.525Z,4.77
2018-05-12T12:10:51.997Z,4.00
2018-05-12T12:13:19.450Z,4.20
2018-05-12T12:15:46.889Z,4.50
2018-05-12T12:18:14.430Z,3.83
2018-05-12T12:20:41.883Z,3.63
2018-05-12T12:23:09.328Z,3.93
2018-05-12T12:25:36.775Z,3.60
2018-05-12T12:28:04.218Z,3.67
2018-05-12T12:30:31.682Z,3.63
2018-05-12T12:32:59.127Z,2.73
2018-05-12T12:35:26.601Z,4.17
2018-05-12T12:37:54.046Z,4.67
2018-05-12T12:40:21.483Z,4.20
2018-05-12T12:42:48.921Z,4.47
2018-05-12T12:45:16.385Z,3.90
2018-05-12T12:47:43.853Z,3.13
2018-05-12T12:50:11.291Z,3.63
2018-05-12T12:52:38.740Z,4.07
2018-05-12T12:55:06.179Z,3.43
2018-05-12T12:57:33.694Z,3.80
2018-05-12T13:00:01.154Z,2.70
2018-05-12T13:02:28.648Z,3.10
2018-05-12T13:04:56.183Z,4.07
2018-05-12T13:07:23.553Z,3.10
2018-05-12T13:09:51.017Z,3.10
2018-05-12T13:12:18.503Z,3.53
2018-05-12T13:14:45.947Z,4.03
2018-05-12T13:17:13.376Z,4.30
2018-05-12T13:19:40.830Z,3.33
2018-05-12T13:22:08.281Z,3.30
2018-05-12T13:24:35.725Z,3.17
2018-05-12T13:27:03.161Z,3.90
2018-05-12T13:29:30.597Z,3.00
2018-05-12T13:31:58.029Z,2.97
2018-05-12T13:34:25.466Z,3.40
2018-05-12T13:36:52.901Z,2.83
2018-05-12T13:39:20.332Z,3.53
2018-05-12T13:41:47.980Z,3.50
2018-05-12T13:44:15.436Z,2.70
2018-05-12T13:46:42.978Z,2.70
2018-05-12T13:49:10.440Z,2.60
2018-05-12T13:51:37.885Z,2.90
2018-05-12T13:54:05.335Z,2.40
2018-05-12T13:56:32.781Z,3.40
2018-05-12T13:59:00.222Z,3.00
2018-05-12T14:01:27.818Z,4.40
2018-05-12T14:03:55.286Z,4.40
2018-05-12T14:06:22.846Z,4.00
2018-05-12T14:08:50.373Z,3.93
2018-05-12T14:11:18.667Z,4.20
2018-05-12T14:13:46.131Z,3.97
2018-05-12T14:16:13.885Z,4.40
2018-05-12T14:18:41.262Z,3.30
2018-05-12T14:21:08.725Z,4.60
2018-05-12T14:23:36.168Z,3.73
2018-05-12T14:26:03.606Z,3.37
2018-05-12T14:28:31.046Z,3.30
2018-05-12T14:30:58.494Z,3.30
2018-05-12T14:33:26.180Z,3.67
2018-05-12T14:35:53.624Z,4.00
2018-05-12T14:38:21.057Z,3.27
2018-05-12T14:40:48.521Z,2.70
2018-05-12T14:43:16.010Z,3.63
2018-05-12T14:45:43.451Z,3.20
2018-05-12T14:48:10.884Z,3.10
2018-05-12T14:50:38.409Z,3.90
2018-05-12T14:53:05.861Z,4.10
2018-05-12T14:55:33.444Z,2.93
2018-05-12T14:58:00.890Z,3.20
2018-05-12T15:00:28.378Z,3.10
2018-05-12T15:02:55.826Z,4.47
2018-05-12T15:05:23.266Z,4.27
2018-05-12T15:07:50.782Z,3.50
2018-05-12T15:10:18.258Z,4.53
2018-05-12T15:12:45.707Z,4.27
2018-05-12T15:15:13.163Z,3.60
2018-05-12T15:17:40.605Z,4.00
2018-05-12T15:20:08.048Z,4.77
2018-05-12T15:22:35.505Z,4.50
2018-05-12T15:25:02.975Z,3.93
2018-05-12T15:27:30.435Z,3.60
2018-05-12T15:29:57.926Z,4.43
2018-05-12T15:32:25.441Z,4.70
2018-05-12T15:34:52.905Z,3.60
2018-05-12T15:37:20.355Z,4.37
2018-05-12T15:39:47.808Z,4.20
2018-05-12T15:42:15.363Z,3.67
2018-05-12T15:44:42.863Z,3.80
2018-05-12T15:47:10.405Z,3.50
2018-05-12T15:49:37.861Z,4.30
2018-05-12T15:52:05.322Z,4.50
2018-05-12T15:54:32.775Z,4.27
2018-05-12T15:57:00.382Z,3.67
2018-05-12T15:59:27.948Z,4.23
2018-05-12T16:01:55.397Z,3.87
2018-05-12T16:04:22.863Z,4.30
2018-05-12T16:06:50.300Z,4.90
2018-05-12T16:09:17.805Z,3.57
2018-05-12T16:11:45.237Z,5.53
2018-05-12T16:14:12.689Z,5.93
2018-05-12T16:16:40.143Z,5.43
2018-05-12T16:19:07.588Z,6.87
2018-05-12T16:21:35.051Z,5.60
2018-05-12T16:24:02.500Z,5.30
2018-05-12T16:26:29.959Z,4.30
2018-05-12T16:28:57.440Z,3.87
2018-05-12T16:31:24.951Z,3.67
2018-05-12T16:33:52.482Z,4.83
2018-05-12T16:36:19.920Z,4.20
2018-05-12T16:38:47.383Z,4.40
2018-05-12T16:41:14.840Z,5.27
2018-05-12T16:43:42.302Z,6.10
2018-05-12T16:46:09.755Z,4.00
2018-05-12T16:48:37.200Z,11.30
2018-05-12T16:51:04.866Z,4.40
2018-05-12T16:53:32.291Z,4.17
2018-05-12T16:55:59.727Z,6.33
2018-05-12T16:58:27.273Z,5.10
2018-05-12T17:00:54.739Z,4.60
2018-05-12T17:03:22.174Z,5.90
2018-05-12T17:05:49.623Z,5.07
2018-05-12T17:08:17.071Z,4.57
2018-05-12T17:10:44.581Z,5.30
2018-05-12T17:13:12.096Z,4.73
2018-05-12T17:15:39.468Z,3.73
2018-05-12T17:18:06.908Z,4.70
2018-05-12T17:20:34.371Z,4.20
2018-05-12T17:23:01.817Z,6.30
2018-05-12T17:25:29.258Z,5.10
2018-05-12T17:27:56.696Z,3.90
2018-05-12T17:30:24.141Z,4.83
2018-05-12T17:32:51.608Z,5.63
2018-05-12T17:35:19.071Z,4.40
2018-05-12T17:37:46.579Z,4.80
2018-05-12T17:40:13.972Z,6.53
2018-05-12T17:42:41.425Z,4.70
2018-05-12T17:45:08.859Z,5.80
2018-05-12T17:47:36.292Z,5.63
2018-05-12T17:50:03.777Z,5.50
2018-05-12T17:52:31.190Z,5.13
2018-05-12T17:54:58.643Z,6.40
2018-05-12T17:57:26.083Z,6.50
2018-05-12T17:59:53.558Z,6.57
2018-05-12T18:02:21.003Z,5.73
2018-05-12T18:04:48.443Z,5.83
2018-05-12T18:07:15.880Z,6.73
2018-05-12T18:09:43.346Z,7.00
2018-05-12T18:12:10.801Z,6.10
2018-05-12T18:14:38.365Z,5.60
2018-05-12T18:17:06.336Z,7.23
2018-05-12T18:19:33.768Z,5.27
2018-05-12T18:22:01.207Z,5.13
2018-05-12T18:24:28.654Z,5.60
2018-05-12T18:26:56.096Z,5.97
2018-05-12T18:29:23.545Z,5.90
2018-05-12T18:31:51.095Z,6.00
2018-05-12T18:34:18.500Z,5.70
2018-05-12T18:36:45.943Z,5.90
2018-05-12T18:39:13.395Z,7.00
2018-05-12T18:41:40.838Z,5.63
2018-05-12T18:44:08.341Z,6.30
2018-05-12T18:46:35.769Z,5.70
2018-05-12T18:49:03.251Z,6.13
2018-05-12T18:51:30.720Z,6.10
2018-05-12T18:53:58.157Z,6.40
2018-05-12T18:56:25.591Z,6.00
2018-05-12T18:58:53.042Z,5.77
2018-05-12T19:01:20.493Z,5.67
2018-05-12T19:03:47.934Z,7.13
2018-05-12T19:06:15.373Z,6.50
2018-05-12T19:08:42.808Z,6.93
2018-05-12T19:11:10.247Z,9.10
2018-05-12T19:13:37.684Z,7.00
2018-05-12T19:16:05.133Z,7.53
2018-05-12T19:18:32.570Z,7.37
2018-05-12T19:21:00.003Z,9.73
2018-05-12T19:23:27.492Z,7.70
2018-05-12T19:25:54.933Z,8.10
2018-05-12T19:28:22.369Z,8.47
2018-05-12T19:30:49.828Z,7.30
2018-05-12T19:33:17.269Z,7.80
2018-05-12T19:35:44.715Z,7.63
2018-05-12T19:38:12.150Z,6.10
2018-05-12T19:40:39.597Z,8.93
2018-05-12T19:43:07.055Z,9.03
2018-05-12T19:45:34.497Z,7.93
2018-05-12T19:48:01.932Z,8.47
2018-05-12T19:50:29.390Z,7.60
2018-05-12T19:52:56.834Z,8.47
2018-05-12T19:55:24.294Z,7.20
2018-05-12T19:57:51.757Z,7.10
2018-05-12T20:00:19.240Z,7.43
2018-05-12T20:02:46.676Z,7.50
2018-05-12T20:05:14.114Z,7.60
2018-05-12T20:07:41.553Z,6.57
2018-05-12T20:10:08.988Z,7.90
2018-05-12T20:12:36.444Z,8.20
2018-05-12T20:15:03.876Z,8.30
2018-05-12T20:17:31.326Z,8.83
2018-05-12T20:19:58.773Z,6.53
2018-05-12T20:22:26.322Z,8.10
2018-05-12T20:24:53.834Z,7.90
2018-05-12T20:27:21.318Z,7.83
2018-05-12T20:29:49.745Z,7.93
2018-05-12T20:32:17.207Z,7.60
2018-05-12T20:34:44.665Z,6.87
2018-05-12T20:37:12.191Z,6.33
2018-05-12T20:39:39.562Z,8.40
2018-05-12T20:42:07.200Z,8.17
2018-05-12T20:44:34.654Z,7.60
2018-05-12T20:47:02.128Z,8.63
2018-05-12T20:49:29.581Z,8.43
2018-05-12T20:51:57.074Z,9.07
2018-05-12T20:54:24.510Z,8.73
2018-05-12T20:56:51.984Z,8.73
2018-05-12T20:59:19.478Z,10.27
2018-05-12T21:01:46.925Z,9.27
2018-05-12T21:04:14.408Z,9.60
2018-05-12T21:06:41.871Z,8.47
2018-05-12T21:09:09.323Z,8.00
2018-05-12T21:11:36.765Z,9.30
2018-05-12T21:14:04.207Z,9.20
2018-05-12T21:16:31.653Z,9.73
2018-05-12T21:18:59.094Z,9.00
2018-05-12T21:21:26.555Z,8.13
2018-05-12T21:23:54.103Z,8.53
2018-05-12T21:26:21.535Z,10.20
2018-05-12T21:28:48.978Z,8.87
2018-05-12T21:31:16.456Z,9.30
2018-05-12T21:33:43.920Z,8.70
2018-05-12T21:36:11.382Z,10.17
2018-05-12T21:38:38.921Z,9.70
2018-05-12T21:41:06.395Z,11.10
2018-05-12T21:43:33.846Z,9.90
2018-05-12T21:46:01.320Z,9.20
2018-05-12T21:48:28.771Z,8.10
2018-05-12T21:50:56.216Z,8.40
2018-05-12T21:53:23.686Z,10.60
2018-05-12T21:55:51.163Z,11.33
2018-05-12T21:58:18.705Z,11.27
2018-05-12T22:00:46.175Z,12.23
2018-05-12T22:03:13.667Z,11.63
2018-05-12T22:05:41.166Z,10.93
2018-05-12T22:08:09.307Z,10.67
2018-05-12T22:10:36.755Z,11.00
2018-05-12T22:13:04.233Z,9.30
2018-05-12T22:15:31.702Z,9.20
2018-05-12T22:17:59.187Z,8.70
2018-05-12T22:20:26.621Z,8.00
2018-05-12T22:22:54.098Z,8.00
2018-05-12T22:25:21.910Z,8.00
2018-05-12T22:27:49.357Z,8.90
2018-05-12T22:30:16.883Z,7.97
2018-05-12T22:32:44.328Z,7.50
2018-05-12T22:35:11.785Z,7.00
2018-05-12T22:37:39.276Z,8.10
2018-05-12T22:40:06.746Z,7.17
2018-05-12T22:42:34.191Z,7.47
2018-05-12T22:45:01.691Z,7.93
2018-05-12T22:47:29.236Z,7.43
2018-05-12T22:49:56.674Z,6.73
2018-05-12T22:52:24.212Z,6.30
2018-05-12T22:54:52.029Z,7.37
2018-05-12T22:57:19.512Z,6.47
2018-05-12T22:59:47.011Z,8.07
2018-05-12T23:02:14.569Z,8.03
2018-05-12T23:04:42.066Z,7.33
2018-05-12T23:07:09.497Z,7.07
2018-05-12T23:09:37.053Z,7.30
2018-05-12T23:12:04.517Z,6.90
2018-05-12T23:14:32.078Z,6.50
2018-05-12T23:16:59.560Z,6.80
2018-05-12T23:19:27.017Z,6.27
2018-05-12T23:21:54.503Z,7.20
2018-05-12T23:24:21.966Z,8.10
2018-05-12T23:26:49.449Z,6.83
2018-05-12T23:29:16.962Z,7.00
2018-05-12T23:31:44.501Z,7.43
2018-05-12T23:34:12.059Z,6.87
2018-05-12T23:36:39.501Z,6.47
2018-05-12T23:39:07.195Z,7.10
2018-05-12T23:41:34.717Z,6.80
2018-05-12T23:44:02.207Z,7.40
2018-05-12T23:46:29.770Z,8.70
2018-05-12T23:48:57.278Z,9.33
2018-05-12T23:51:24.936Z,7.70
2018-05-12T23:53:52.323Z,7.90
2018-05-12T23:56:19.792Z,6.47
2018-05-12T23:58:47.273Z,6.53
